createdAt,value
2022-10-09T00:00:12.397Z,0
2022-10-09T00:01:12.391Z,0
2022-10-09T00:02:12.436Z,0
2022-10-09T00:03:12.405Z,0
2022-10-09T00:04:12.397Z,0
2022-10-09T00:05:12.435Z,0
2022-10-09T00:06:12.397Z,0
2022-10-09T00:07:12.397Z,0
2022-10-09T00:08:12.412Z,0
2022-10-09T00:09:12.403Z,0
2022-10-09T00:10:12.391Z,0
2022-10-09T00:11:12.400Z,0
2022-10-09T00:12:12.396Z,0
2022-10-09T00:13:12.407Z,0
2022-10-09T00:14:12.391Z,0
2022-10-09T00:15:12.393Z,0
2022-10-09T00:16:12.402Z,0
2022-10-09T00:17:12.391Z,0
2022-10-09T00:18:12.402Z,0
2022-10-09T00:19:12.391Z,0
2022-10-09T00:20:12.405Z,0
2022-10-09T00:21:12.405Z,0
2022-10-09T00:22:12.388Z,0
2022-10-09T00:23:12.397Z,0
2022-10-09T00:24:12.409Z,0
2022-10-09T00:25:12.402Z,0
2022-10-09T00:26:12.400Z,0
2022-10-09T00:27:12.395Z,0
2022-10-09T00:28:12.439Z,0
2022-10-09T00:29:12.400Z,0
2022-10-09T00:30:12.413Z,0
2022-10-09T00:31:12.441Z,0
2022-10-09T00:32:12.399Z,0
2022-10-09T00:33:12.403Z,0
2022-10-09T00:34:12.397Z,0
2022-10-09T00:35:12.396Z,0
2022-10-09T00:36:12.399Z,0
2022-10-09T00:37:12.400Z,0
2022-10-09T00:38:12.404Z,0
2022-10-09T00:39:12.403Z,0
2022-10-09T00:40:12.395Z,0
2022-10-09T00:41:12.398Z,0
2022-10-09T00:42:12.396Z,0
2022-10-09T00:43:12.399Z,0
2022-10-09T00:44:12.405Z,0
2022-10-09T00:45:12.400Z,0
2022-10-09T00:46:12.420Z,0
2022-10-09T00:47:12.395Z,0
2022-10-09T00:48:12.402Z,0
2022-10-09T00:49:12.394Z,0
2022-10-09T00:50:12.403Z,0
2022-10-09T00:51:12.396Z,0
2022-10-09T00:52:12.395Z,0
2022-10-09T00:53:12.403Z,0
2022-10-09T00:54:12.435Z,0
2022-10-09T00:55:12.393Z,0
2022-10-09T00:56:12.403Z,0
2022-10-09T00:57:12.381Z,0
2022-10-09T00:58:12.394Z,0
2022-10-09T00:59:12.388Z,0
2022-10-09T01:00:12.397Z,0
2022-10-09T01:01:12.441Z,0
2022-10-09T01:02:12.472Z,0
2022-10-09T01:03:12.390Z,0
2022-10-09T01:04:12.382Z,0
2022-10-09T01:05:12.397Z,0
2022-10-09T01:06:12.385Z,0
2022-10-09T01:07:12.393Z,0
2022-10-09T01:08:12.387Z,0
2022-10-09T01:09:12.400Z,0
2022-10-09T01:10:12.393Z,0
2022-10-09T01:11:12.427Z,0
2022-10-09T01:12:12.381Z,0
2022-10-09T01:13:12.395Z,0
2022-10-09T01:14:12.392Z,0
2022-10-09T01:15:12.396Z,0
2022-10-09T01:16:12.454Z,0
2022-10-09T01:17:12.394Z,0
2022-10-09T01:18:12.407Z,0
2022-10-09T01:19:12.391Z,0
2022-10-09T01:20:12.389Z,0
2022-10-09T01:21:12.389Z,0
2022-10-09T01:22:12.394Z,0
2022-10-09T01:23:12.398Z,0
2022-10-09T01:24:12.406Z,0
2022-10-09T01:25:12.394Z,0
2022-10-09T01:26:12.395Z,0
2022-10-09T01:27:12.400Z,0
2022-10-09T01:28:12.495Z,0
2022-10-09T01:29:12.394Z,0
2022-10-09T01:30:12.397Z,0
2022-10-09T01:31:12.498Z,0
2022-10-09T01:32:12.396Z,0
2022-10-09T01:33:12.405Z,0
2022-10-09T01:34:12.387Z,0
2022-10-09T01:35:12.388Z,0
2022-10-09T01:36:12.396Z,0
2022-10-09T01:37:12.391Z,0
2022-10-09T01:38:12.395Z,0
2022-10-09T01:39:12.426Z,0
2022-10-09T01:40:12.399Z,0
2022-10-09T01:41:12.398Z,0
2022-10-09T01:42:12.391Z,0
2022-10-09T01:43:12.394Z,0
2022-10-09T01:44:12.393Z,0
2022-10-09T01:45:12.396Z,0
2022-10-09T01:46:12.410Z,0
2022-10-09T01:47:12.393Z,0
2022-10-09T01:48:12.403Z,0
2022-10-09T01:49:12.393Z,0
2022-10-09T01:50:12.389Z,0
2022-10-09T01:51:12.389Z,0
2022-10-09T01:52:12.394Z,0
2022-10-09T01:53:12.400Z,0
2022-10-09T01:54:12.409Z,0
2022-10-09T01:55:12.390Z,0
2022-10-09T01:56:12.396Z,0
2022-10-09T01:57:12.397Z,0
2022-10-09T01:58:12.400Z,0
2022-10-09T01:59:15.644Z,0
2022-10-09T02:00:12.388Z,0
2022-10-09T02:01:12.452Z,0
2022-10-09T02:02:12.593Z,0
2022-10-09T02:03:12.390Z,0
2022-10-09T02:04:12.400Z,0
2022-10-09T02:05:12.403Z,0
2022-10-09T02:06:12.403Z,0
2022-10-09T02:07:12.386Z,0
2022-10-09T02:08:12.401Z,0
2022-10-09T02:09:12.408Z,0
2022-10-09T02:10:12.395Z,0
2022-10-09T02:11:12.389Z,0
2022-10-09T02:12:12.384Z,0
2022-10-09T02:13:12.400Z,0
2022-10-09T02:14:12.387Z,0
2022-10-09T02:15:12.384Z,0
2022-10-09T02:16:12.501Z,0
2022-10-09T02:17:12.391Z,0
2022-10-09T02:18:12.388Z,0
2022-10-09T02:19:12.379Z,0
2022-10-09T02:20:12.388Z,0
2022-10-09T02:21:12.389Z,0
2022-10-09T02:22:12.385Z,0
2022-10-09T02:23:12.390Z,0
2022-10-09T02:24:12.395Z,0
2022-10-09T02:25:12.385Z,0
2022-10-09T02:26:12.385Z,0
2022-10-09T02:27:12.384Z,0
2022-10-09T02:28:12.479Z,0
2022-10-09T02:29:12.387Z,0
2022-10-09T02:30:12.395Z,0
2022-10-09T02:31:12.454Z,0
2022-10-09T02:32:12.391Z,0
2022-10-09T02:33:12.408Z,0
2022-10-09T02:34:12.392Z,0
2022-10-09T02:35:12.390Z,0
2022-10-09T02:36:12.393Z,0
2022-10-09T02:37:12.391Z,0
2022-10-09T02:38:12.396Z,0
2022-10-09T02:39:12.403Z,0
2022-10-09T02:40:12.404Z,0
2022-10-09T02:41:12.400Z,0
2022-10-09T02:42:12.395Z,0
2022-10-09T02:43:12.397Z,0
2022-10-09T02:44:12.430Z,0
2022-10-09T02:45:12.392Z,0
2022-10-09T02:46:12.445Z,0
2022-10-09T02:47:12.396Z,0
2022-10-09T02:48:12.401Z,0
2022-10-09T02:49:12.396Z,0
2022-10-09T02:50:12.396Z,0
2022-10-09T02:51:12.389Z,0
2022-10-09T02:52:12.399Z,0
2022-10-09T02:53:12.399Z,0
2022-10-09T02:54:12.410Z,0
2022-10-09T02:55:12.402Z,0
2022-10-09T02:56:12.394Z,0
2022-10-09T02:57:12.405Z,0
2022-10-09T03:01:12.410Z,0
2022-10-09T03:02:12.465Z,0
2022-10-09T03:03:12.430Z,0
2022-10-09T03:04:12.392Z,0
2022-10-09T03:05:12.399Z,0
2022-10-09T03:06:12.395Z,0
2022-10-09T03:07:12.401Z,0
2022-10-09T03:08:12.399Z,0
2022-10-09T03:09:12.424Z,0
2022-10-09T03:10:12.403Z,0
2022-10-09T03:11:12.395Z,0
2022-10-09T03:12:12.406Z,0
2022-10-09T03:13:12.403Z,0
2022-10-09T03:14:12.407Z,0
2022-10-09T03:15:12.399Z,0
2022-10-09T03:16:12.489Z,0
2022-10-09T03:17:12.401Z,0
2022-10-09T03:18:12.410Z,0
2022-10-09T03:19:12.403Z,0
2022-10-09T03:20:12.394Z,0
2022-10-09T03:21:12.405Z,0
2022-10-09T03:22:12.404Z,0
2022-10-09T03:23:12.401Z,0
2022-10-09T03:24:12.413Z,0
2022-10-09T03:25:12.399Z,0
2022-10-09T03:26:12.393Z,0
2022-10-09T03:27:12.388Z,0
2022-10-09T03:28:12.463Z,0
2022-10-09T03:29:12.386Z,0
2022-10-09T03:30:12.407Z,0
2022-10-09T03:31:22.533Z,0
2022-10-09T03:32:12.447Z,0
2022-10-09T03:33:12.396Z,0
2022-10-09T03:34:12.389Z,0
2022-10-09T03:35:12.390Z,0
2022-10-09T03:36:12.390Z,0
2022-10-09T03:37:12.383Z,0
2022-10-09T03:38:12.400Z,0
2022-10-09T03:39:12.402Z,0
2022-10-09T03:40:12.390Z,0
2022-10-09T03:41:12.390Z,0
2022-10-09T03:42:12.400Z,0
2022-10-09T03:43:12.406Z,0
2022-10-09T03:44:12.398Z,0
2022-10-09T03:45:12.392Z,0
2022-10-09T03:46:12.449Z,0
2022-10-09T03:47:12.394Z,0
2022-10-09T03:48:12.405Z,0
2022-10-09T03:49:12.391Z,0
2022-10-09T03:50:12.391Z,0
2022-10-09T03:51:12.389Z,0
2022-10-09T03:52:12.464Z,0
2022-10-09T03:53:12.399Z,0
2022-10-09T03:54:12.410Z,0
2022-10-09T03:55:12.405Z,0
2022-10-09T03:56:12.396Z,0
2022-10-09T03:57:12.398Z,0
2022-10-09T03:58:12.488Z,0
2022-10-09T03:59:12.385Z,0
2022-10-09T04:00:12.403Z,0
2022-10-09T04:01:12.443Z,0
2022-10-09T04:02:12.454Z,0
2022-10-09T04:03:12.406Z,0
2022-10-09T04:04:12.398Z,0
2022-10-09T04:05:12.395Z,0
2022-10-09T04:06:12.388Z,0
2022-10-09T04:07:12.402Z,0
2022-10-09T04:08:12.404Z,0
2022-10-09T04:09:12.412Z,0
2022-10-09T04:10:12.396Z,0
2022-10-09T04:11:12.400Z,0
2022-10-09T04:12:12.399Z,0
2022-10-09T04:13:12.398Z,0
2022-10-09T04:14:12.393Z,0
2022-10-09T04:15:12.394Z,0
2022-10-09T04:16:12.472Z,0
2022-10-09T04:17:12.394Z,0
2022-10-09T04:18:12.408Z,0
2022-10-09T04:19:12.397Z,0
2022-10-09T04:20:12.399Z,0
2022-10-09T04:21:12.398Z,0
2022-10-09T04:22:12.402Z,0
2022-10-09T04:23:12.405Z,0
2022-10-09T04:24:12.405Z,0
2022-10-09T04:25:12.397Z,0
2022-10-09T04:26:12.401Z,0
2022-10-09T04:27:12.399Z,0
2022-10-09T04:28:12.433Z,0
2022-10-09T04:29:12.397Z,0
2022-10-09T04:30:12.385Z,0
2022-10-09T04:31:12.433Z,0
2022-10-09T04:32:12.397Z,0
2022-10-09T04:33:13.177Z,0
2022-10-09T04:34:12.396Z,0
2022-10-09T04:35:12.390Z,0
2022-10-09T04:36:12.391Z,0
2022-10-09T04:37:12.394Z,0
2022-10-09T04:38:12.414Z,0
2022-10-09T04:39:12.423Z,0
2022-10-09T04:40:12.390Z,0
2022-10-09T04:41:12.458Z,0
2022-10-09T04:42:12.391Z,0
2022-10-09T04:43:12.391Z,0
2022-10-09T04:44:12.405Z,0
2022-10-09T04:45:12.392Z,0
2022-10-09T04:46:12.503Z,0
2022-10-09T04:47:12.479Z,1
2022-10-09T04:48:12.399Z,1
2022-10-09T04:49:12.387Z,3
2022-10-09T04:50:12.390Z,5
2022-10-09T04:51:12.384Z,7
2022-10-09T04:52:12.382Z,9
2022-10-09T04:53:12.397Z,11
2022-10-09T04:54:12.414Z,12
2022-10-09T04:55:12.385Z,14
2022-10-09T04:56:12.418Z,18
2022-10-09T04:57:12.396Z,23
2022-10-09T04:58:12.412Z,27
2022-10-09T04:59:12.385Z,31
2022-10-09T05:00:12.391Z,38
2022-10-09T05:01:12.481Z,44
2022-10-09T05:02:12.428Z,53
2022-10-09T05:03:12.407Z,58
2022-10-09T05:04:12.399Z,70
2022-10-09T05:05:12.406Z,79
2022-10-09T05:06:12.394Z,92
2022-10-09T05:07:12.398Z,103
2022-10-09T05:08:12.406Z,116
2022-10-09T05:09:12.410Z,116
2022-10-09T05:10:12.469Z,145
2022-10-09T05:11:12.401Z,162
2022-10-09T05:12:12.401Z,180
2022-10-09T05:13:12.415Z,199
2022-10-09T05:14:12.404Z,217
2022-10-09T05:15:12.391Z,239
2022-10-09T05:16:12.476Z,261
2022-10-09T05:17:14.496Z,282
2022-10-09T05:18:12.468Z,307
2022-10-09T05:19:12.398Z,331
2022-10-09T05:20:12.395Z,359
2022-10-09T05:21:12.397Z,385
2022-10-09T05:22:12.401Z,412
2022-10-09T05:23:12.409Z,444
2022-10-09T05:24:12.409Z,475
2022-10-09T05:25:12.400Z,508
2022-10-09T05:26:12.395Z,543
2022-10-09T05:27:12.396Z,576
2022-10-09T05:28:12.456Z,615
2022-10-09T05:29:12.399Z,676
2022-10-09T05:30:12.396Z,748
2022-10-09T05:31:12.512Z,803
2022-10-09T05:32:12.465Z,890
2022-10-09T05:33:12.413Z,973
2022-10-09T05:34:12.400Z,1061
2022-10-09T05:35:12.397Z,1148
2022-10-09T05:36:12.398Z,1210
2022-10-09T05:37:12.398Z,1288
2022-10-09T05:38:12.409Z,1378
2022-10-09T05:39:12.406Z,1469
2022-10-09T05:40:12.391Z,1577
2022-10-09T05:41:12.400Z,1666
2022-10-09T05:42:12.393Z,1776
2022-10-09T05:43:12.410Z,1881
2022-10-09T05:44:12.406Z,1979
2022-10-09T05:45:12.393Z,2112
2022-10-09T05:46:12.484Z,2224
2022-10-09T05:47:12.388Z,2351
2022-10-09T05:48:12.405Z,2468
2022-10-09T05:49:12.395Z,2628
2022-10-09T05:50:12.400Z,2748
2022-10-09T05:51:12.400Z,2882
2022-10-09T05:52:12.386Z,2989
2022-10-09T05:53:12.401Z,3126
2022-10-09T05:54:12.410Z,3229
2022-10-09T05:55:12.399Z,3354
2022-10-09T05:56:12.384Z,3457
2022-10-09T05:57:12.385Z,3618
2022-10-09T05:58:12.408Z,3741
2022-10-09T05:59:12.392Z,3944
2022-10-09T06:00:12.398Z,4073
2022-10-09T06:01:12.544Z,4189
2022-10-09T06:02:12.440Z,4316
2022-10-09T06:03:12.395Z,4455
2022-10-09T06:04:12.386Z,4499
2022-10-09T06:05:12.387Z,4698
2022-10-09T06:06:12.395Z,4843
2022-10-09T06:07:12.400Z,4925
2022-10-09T06:08:12.409Z,5026
2022-10-09T06:09:12.401Z,5026
2022-10-09T06:10:12.401Z,5280
2022-10-09T06:11:12.403Z,5409
2022-10-09T06:12:12.403Z,5524
2022-10-09T06:13:12.408Z,5699
2022-10-09T06:14:12.424Z,5793
2022-10-09T06:15:12.397Z,5914
2022-10-09T06:16:12.454Z,5997
2022-10-09T06:17:12.405Z,6147
2022-10-09T06:18:12.399Z,6290
2022-10-09T06:19:12.404Z,6423
2022-10-09T06:20:12.392Z,6519
2022-10-09T06:21:12.392Z,6650
2022-10-09T06:22:12.398Z,6733
2022-10-09T06:23:12.411Z,6858
2022-10-09T06:24:12.410Z,6994
2022-10-09T06:25:12.401Z,7098
2022-10-09T06:26:12.396Z,7214
2022-10-09T06:27:12.401Z,7323
2022-10-09T06:28:12.518Z,7461
2022-10-09T06:29:12.408Z,7568
2022-10-09T06:30:12.393Z,7542
2022-10-09T06:31:12.481Z,8064
2022-10-09T06:32:12.405Z,8174
2022-10-09T06:33:12.413Z,8301
2022-10-09T06:34:12.409Z,8362
2022-10-09T06:35:12.397Z,8393
2022-10-09T06:36:12.394Z,8493
2022-10-09T06:37:12.400Z,8581
2022-10-09T06:38:12.436Z,8745
2022-10-09T06:39:12.415Z,8911
2022-10-09T06:40:12.402Z,8967
2022-10-09T06:41:12.428Z,9085
2022-10-09T06:42:12.398Z,9123
2022-10-09T06:43:12.401Z,9179
2022-10-09T06:44:16.293Z,9228
2022-10-09T06:45:12.396Z,9333
2022-10-09T06:46:12.475Z,9370
2022-10-09T06:47:12.399Z,9387
2022-10-09T06:48:12.406Z,9464
2022-10-09T06:49:12.405Z,9555
2022-10-09T06:50:12.480Z,9269
2022-10-09T06:51:12.397Z,9407
2022-10-09T06:52:12.395Z,11743
2022-10-09T06:53:12.450Z,10279
2022-10-09T06:54:12.416Z,10121
2022-10-09T06:55:12.398Z,10412
2022-10-09T06:56:12.395Z,10572
2022-10-09T06:57:12.389Z,10764
2022-10-09T06:58:12.412Z,10764
2022-10-09T06:59:12.419Z,10885
2022-10-09T07:00:12.398Z,10976
2022-10-09T07:01:12.497Z,11143
2022-10-09T07:02:12.455Z,11212
2022-10-09T07:03:12.479Z,11385
2022-10-09T07:04:12.393Z,11494
2022-10-09T07:05:12.399Z,11453
2022-10-09T07:06:12.387Z,11584
2022-10-09T07:07:12.396Z,11558
2022-10-09T07:08:12.397Z,11610
2022-10-09T07:09:12.407Z,11610
2022-10-09T07:10:12.398Z,11765
2022-10-09T07:11:12.390Z,11955
2022-10-09T07:12:12.387Z,12106
2022-10-09T07:13:12.397Z,12100
2022-10-09T07:14:12.391Z,12290
2022-10-09T07:15:12.383Z,12410
2022-10-09T07:16:12.465Z,12336
2022-10-09T07:17:12.389Z,13171
2022-10-09T07:18:12.393Z,12719
2022-10-09T07:19:12.399Z,12636
2022-10-09T07:20:12.394Z,12559
2022-10-09T07:21:12.388Z,12299
2022-10-09T07:22:12.406Z,11984
2022-10-09T07:23:12.396Z,11761
2022-10-09T07:24:12.412Z,11525
2022-10-09T07:25:12.386Z,11191
2022-10-09T07:26:12.382Z,10771
2022-10-09T07:27:12.396Z,11258
2022-10-09T07:28:12.457Z,10544
2022-10-09T07:29:12.390Z,10406
2022-10-09T07:30:12.388Z,10344
2022-10-09T07:31:12.515Z,10391
2022-10-09T07:32:12.397Z,10541
2022-10-09T07:33:12.397Z,10581
2022-10-09T07:34:12.388Z,10624
2022-10-09T07:35:12.398Z,10637
2022-10-09T07:36:12.397Z,10685
2022-10-09T07:37:12.394Z,10766
2022-10-09T07:38:12.405Z,10784
2022-10-09T07:39:12.428Z,10753
2022-10-09T07:40:12.478Z,10775
2022-10-09T07:41:12.399Z,10688
2022-10-09T07:42:12.401Z,12211
2022-10-09T07:43:12.402Z,11418
2022-10-09T07:44:12.391Z,11438
2022-10-09T07:45:12.392Z,11387
2022-10-09T07:46:12.439Z,11464
2022-10-09T07:47:12.389Z,11660
2022-10-09T07:48:12.406Z,11685
2022-10-09T07:49:12.411Z,12111
2022-10-09T07:50:12.394Z,11512
2022-10-09T07:51:12.404Z,11409
2022-10-09T07:52:12.383Z,11630
2022-10-09T07:53:12.400Z,11768
2022-10-09T07:54:12.410Z,11868
2022-10-09T07:55:12.386Z,12041
2022-10-09T07:56:12.391Z,12104
2022-10-09T07:57:12.402Z,12216
2022-10-09T07:58:12.397Z,12353
2022-10-09T07:59:12.404Z,12428
2022-10-09T08:00:12.395Z,12515
2022-10-09T08:01:16.115Z,12603
2022-10-09T08:02:12.418Z,12712
2022-10-09T08:03:12.407Z,12847
2022-10-09T08:04:12.397Z,12970
2022-10-09T08:05:12.414Z,13059
2022-10-09T08:06:12.391Z,13224
2022-10-09T08:07:12.397Z,13293
2022-10-09T08:08:13.089Z,13427
2022-10-09T08:09:12.404Z,13427
2022-10-09T08:10:12.893Z,13623
2022-10-09T08:11:12.390Z,13728
2022-10-09T08:12:12.400Z,13108
2022-10-09T08:13:12.409Z,13626
2022-10-09T08:14:18.047Z,13800
2022-10-09T08:15:12.392Z,13847
2022-10-09T08:16:12.489Z,13934
2022-10-09T08:17:12.436Z,13975
2022-10-09T08:18:12.491Z,14069
2022-10-09T08:19:12.395Z,14120
2022-10-09T08:20:12.394Z,14227
2022-10-09T08:21:12.392Z,14290
2022-10-09T08:22:12.388Z,14321
2022-10-09T08:23:12.393Z,14397
2022-10-09T08:24:12.400Z,14413
2022-10-09T08:25:12.384Z,14476
2022-10-09T08:26:12.388Z,14564
2022-10-09T08:27:12.406Z,14596
2022-10-09T08:28:12.437Z,14598
2022-10-09T08:29:12.401Z,14706
2022-10-09T08:30:12.386Z,14863
2022-10-09T08:31:12.493Z,14880
2022-10-09T08:32:12.388Z,14863
2022-10-09T08:33:12.404Z,14570
2022-10-09T08:34:12.403Z,15014
2022-10-09T08:35:12.385Z,15025
2022-10-09T08:36:12.385Z,14994
2022-10-09T08:37:12.383Z,14992
2022-10-09T08:38:25.577Z,15033
2022-10-09T08:39:12.421Z,15011
2022-10-09T08:40:12.401Z,14999
2022-10-09T08:41:12.388Z,15095
2022-10-09T08:42:12.396Z,15070
2022-10-09T08:43:12.405Z,15145
2022-10-09T08:44:12.398Z,15073
2022-10-09T08:45:12.400Z,16891
2022-10-09T08:46:12.419Z,14937
2022-10-09T08:47:12.394Z,16708
2022-10-09T08:48:12.414Z,16939
2022-10-09T08:49:12.397Z,15963
2022-10-09T08:50:12.395Z,15943
2022-10-09T08:51:12.456Z,15925
2022-10-09T08:52:12.391Z,15820
2022-10-09T08:53:12.405Z,15893
2022-10-09T08:54:12.420Z,16000
2022-10-09T08:55:12.398Z,16000
2022-10-09T08:56:12.394Z,16026
2022-10-09T08:57:12.391Z,16059
2022-10-09T08:58:12.413Z,16140
2022-10-09T08:59:12.406Z,16155
2022-10-09T09:00:12.396Z,16209
2022-10-09T09:01:12.464Z,16155
2022-10-09T09:02:12.394Z,16253
2022-10-09T09:03:12.423Z,16347
2022-10-09T09:04:12.387Z,16376
2022-10-09T09:05:12.400Z,16419
2022-10-09T09:06:12.394Z,16395
2022-10-09T09:07:12.396Z,16280
2022-10-09T09:08:12.400Z,16428
2022-10-09T09:09:12.409Z,16428
2022-10-09T09:10:12.401Z,16607
2022-10-09T09:11:12.396Z,16701
2022-10-09T09:12:12.391Z,16677
2022-10-09T09:13:12.409Z,16675
2022-10-09T09:14:12.413Z,16778
2022-10-09T09:15:12.394Z,16920
2022-10-09T09:16:12.433Z,16107
2022-10-09T09:17:12.407Z,6077
2022-10-09T09:18:12.413Z,4643
2022-10-09T09:19:12.393Z,4303
2022-10-09T09:20:12.384Z,4132
2022-10-09T09:21:12.396Z,4222
2022-10-09T09:22:12.396Z,4416
2022-10-09T09:23:12.393Z,4908
2022-10-09T09:24:12.403Z,5354
2022-10-09T09:25:12.396Z,6006
2022-10-09T09:26:12.392Z,16983
2022-10-09T09:27:12.398Z,12255
2022-10-09T09:28:12.709Z,6701
2022-10-09T09:29:12.392Z,6185
2022-10-09T09:30:12.452Z,6222
2022-10-09T09:31:12.472Z,5500
2022-10-09T09:32:12.393Z,5769
2022-10-09T09:33:12.404Z,10952
2022-10-09T09:34:12.398Z,6136
2022-10-09T09:35:12.400Z,5842
2022-10-09T09:36:12.386Z,6228
2022-10-09T09:37:12.399Z,7182
2022-10-09T09:38:12.398Z,7708
2022-10-09T09:39:55.685Z,9020
2022-10-09T09:40:37.193Z,11982
2022-10-09T09:41:12.388Z,16481
2022-10-09T09:42:12.384Z,17086
2022-10-09T09:43:12.461Z,17068
2022-10-09T09:44:12.385Z,16887
2022-10-09T09:45:12.390Z,16981
2022-10-09T09:46:12.430Z,18094
2022-10-09T09:47:12.394Z,17383
2022-10-09T09:48:12.393Z,17130
2022-10-09T09:49:12.383Z,17097
2022-10-09T09:50:34.927Z,17045
2022-10-09T09:51:27.286Z,17097
2022-10-09T09:52:12.390Z,17060
2022-10-09T09:53:12.398Z,17084
2022-10-09T09:54:12.413Z,17174
2022-10-09T09:55:12.407Z,17265
2022-10-09T09:56:12.401Z,17182
2022-10-09T09:57:17.113Z,17219
2022-10-09T09:58:12.402Z,17265
2022-10-09T09:59:12.413Z,17464
2022-10-09T10:00:12.416Z,17318
2022-10-09T10:01:12.517Z,17368
2022-10-09T10:02:12.498Z,17462
2022-10-09T10:03:12.404Z,17471
2022-10-09T10:04:12.393Z,17403
2022-10-09T10:05:12.395Z,17425
2022-10-09T10:06:12.397Z,17364
2022-10-09T10:07:12.393Z,17383
2022-10-09T10:08:12.402Z,17397
2022-10-09T10:09:12.412Z,17397
2022-10-09T10:10:12.406Z,17444
2022-10-09T10:11:12.403Z,17477
2022-10-09T10:12:12.397Z,17486
2022-10-09T10:13:12.400Z,17403
2022-10-09T10:14:12.392Z,17432
2022-10-09T10:15:12.395Z,17401
2022-10-09T10:16:12.462Z,17377
2022-10-09T10:17:16.340Z,17342
2022-10-09T10:18:12.411Z,17361
2022-10-09T10:19:12.406Z,17403
2022-10-09T10:20:12.412Z,17473
2022-10-09T10:21:12.424Z,17497
2022-10-09T10:22:12.401Z,17510
2022-10-09T10:23:12.407Z,17536
2022-10-09T10:24:12.409Z,17521
2022-10-09T10:25:14.020Z,17711
2022-10-09T10:26:12.398Z,17718
2022-10-09T10:27:12.400Z,17757
2022-10-09T10:28:12.457Z,17733
2022-10-09T10:29:12.400Z,17825
2022-10-09T10:30:12.387Z,17831
2022-10-09T10:31:12.410Z,17844
2022-10-09T10:32:12.398Z,17858
2022-10-09T10:33:12.409Z,17867
2022-10-09T10:34:12.389Z,17901
2022-10-09T10:35:12.395Z,17956
2022-10-09T10:36:12.400Z,18008
2022-10-09T10:37:12.397Z,17884
2022-10-09T10:38:12.406Z,17969
2022-10-09T10:39:12.413Z,18573
2022-10-09T10:40:12.393Z,17947
2022-10-09T10:41:12.396Z,18688
2022-10-09T10:42:12.399Z,18400
2022-10-09T10:43:12.404Z,18232
2022-10-09T10:44:12.387Z,17709
2022-10-09T10:45:12.403Z,17667
2022-10-09T10:46:12.514Z,17735
2022-10-09T10:47:12.389Z,17987
2022-10-09T10:48:12.405Z,18035
2022-10-09T10:49:12.395Z,17952
2022-10-09T10:50:12.397Z,17997
2022-10-09T10:51:12.402Z,17923
2022-10-09T10:52:12.397Z,17862
2022-10-09T10:53:12.504Z,17624
2022-10-09T10:54:12.409Z,17622
2022-10-09T10:55:12.394Z,17482
2022-10-09T10:56:12.495Z,17248
2022-10-09T10:57:12.484Z,16605
2022-10-09T10:58:12.451Z,17687
2022-10-09T10:59:12.388Z,17045
2022-10-09T11:00:12.405Z,17285
2022-10-09T11:01:12.432Z,16979
2022-10-09T11:02:12.389Z,17491
2022-10-09T11:03:12.438Z,18126
2022-10-09T11:04:12.384Z,18083
2022-10-09T11:05:12.383Z,17864
2022-10-09T11:06:12.389Z,17982
2022-10-09T11:07:12.386Z,18019
2022-10-09T11:08:12.393Z,17998
2022-10-09T11:09:12.406Z,17998
2022-10-09T11:10:12.396Z,17585
2022-10-09T11:11:12.454Z,17569
2022-10-09T11:12:19.612Z,17320
2022-10-09T11:13:12.407Z,17683
2022-10-09T11:14:15.465Z,17880
2022-10-09T11:15:12.388Z,17820
2022-10-09T11:16:12.429Z,17748
2022-10-09T11:17:12.391Z,17628
2022-10-09T11:18:12.454Z,17364
2022-10-09T11:19:12.393Z,17515
2022-10-09T11:20:12.389Z,17637
2022-10-09T11:21:12.387Z,17766
2022-10-09T11:22:12.395Z,17803
2022-10-09T11:23:12.408Z,17600
2022-10-09T11:24:12.410Z,17265
2022-10-09T11:25:12.393Z,17278
2022-10-09T11:26:12.399Z,17202
2022-10-09T11:27:12.392Z,17038
2022-10-09T11:28:12.442Z,16030
2022-10-09T11:29:12.395Z,17573
2022-10-09T11:30:12.405Z,17084
2022-10-09T11:31:12.457Z,17504
2022-10-09T11:32:12.399Z,17407
2022-10-09T11:33:12.409Z,17453
2022-10-09T11:34:12.393Z,17501
2022-10-09T11:35:12.394Z,17425
2022-10-09T11:36:12.395Z,17351
2022-10-09T11:37:12.399Z,17318
2022-10-09T11:38:12.408Z,17338
2022-10-09T11:39:12.403Z,17182
2022-10-09T11:40:12.401Z,17056
2022-10-09T11:41:12.390Z,16988
2022-10-09T11:42:12.396Z,16867
2022-10-09T11:43:12.401Z,16756
2022-10-09T11:44:12.390Z,16544
2022-10-09T11:45:12.386Z,16262
2022-10-09T11:46:12.426Z,16205
2022-10-09T11:47:12.399Z,16091
2022-10-09T11:48:12.399Z,15875
2022-10-09T11:49:12.397Z,15768
2022-10-09T11:50:12.390Z,15615
2022-10-09T11:51:12.384Z,15486
2022-10-09T11:52:12.391Z,15326
2022-10-09T11:53:12.407Z,15219
2022-10-09T11:54:12.417Z,15049
2022-10-09T11:55:12.396Z,15047
2022-10-09T11:56:12.394Z,15374
2022-10-09T11:57:15.293Z,15394
2022-10-09T11:58:12.398Z,15324
2022-10-09T11:59:12.391Z,16297
2022-10-09T12:00:12.391Z,17622
2022-10-09T12:01:12.436Z,17722
2022-10-09T12:02:12.425Z,17027
2022-10-09T12:03:12.404Z,17178
2022-10-09T12:04:12.428Z,18087
2022-10-09T12:05:12.393Z,18476
2022-10-09T12:06:12.394Z,19431
2022-10-09T12:07:12.395Z,18898
2022-10-09T12:08:15.393Z,20160
2022-10-09T12:09:12.413Z,20160
2022-10-09T12:10:12.405Z,20343
2022-10-09T12:11:12.398Z,20724
2022-10-09T12:12:12.399Z,20490
2022-10-09T12:13:12.423Z,19941
2022-10-09T12:14:13.177Z,20006
2022-10-09T12:15:12.389Z,19913
2022-10-09T12:16:12.438Z,19755
2022-10-09T12:17:12.387Z,20013
2022-10-09T12:18:12.395Z,19888
2022-10-09T12:19:12.389Z,19410
2022-10-09T12:20:12.396Z,19182
2022-10-09T12:21:12.392Z,19287
2022-10-09T12:22:12.388Z,19536
2022-10-09T12:23:26.392Z,19324
2022-10-09T12:24:12.403Z,18975
2022-10-09T12:25:12.388Z,18666
2022-10-09T12:26:12.393Z,18498
2022-10-09T12:27:12.382Z,18428
2022-10-09T12:28:12.452Z,17208
2022-10-09T12:29:12.387Z,19528
2022-10-09T12:30:12.394Z,18398
2022-10-09T12:31:12.504Z,17200
2022-10-09T12:32:12.390Z,15820
2022-10-09T12:33:12.396Z,16164
2022-10-09T12:34:12.396Z,16404
2022-10-09T12:35:12.397Z,17493
2022-10-09T12:36:12.392Z,17679
2022-10-09T12:37:12.391Z,17543
2022-10-09T12:38:12.405Z,17598
2022-10-09T12:39:12.413Z,18524
2022-10-09T12:40:12.395Z,18494
2022-10-09T12:41:15.601Z,18562
2022-10-09T12:42:12.401Z,18669
2022-10-09T12:43:12.397Z,18588
2022-10-09T12:44:12.404Z,18682
2022-10-09T12:45:12.396Z,17869
2022-10-09T12:46:12.478Z,17984
2022-10-09T12:47:12.474Z,17733
2022-10-09T12:48:12.412Z,18065
2022-10-09T12:49:12.402Z,18065
2022-10-09T12:50:12.537Z,18293
2022-10-09T12:51:12.406Z,18293
2022-10-09T12:52:12.486Z,18264
2022-10-09T12:53:12.402Z,18256
2022-10-09T12:54:12.416Z,18140
2022-10-09T12:55:12.397Z,18314
2022-10-09T12:56:12.392Z,18098
2022-10-09T12:57:12.391Z,17744
2022-10-09T12:58:12.404Z,17597
2022-10-09T12:59:12.405Z,17597
2022-10-09T13:00:12.447Z,17715
2022-10-09T13:01:12.511Z,17921
2022-10-09T13:02:12.528Z,17904
2022-10-09T13:03:12.407Z,17825
2022-10-09T13:04:12.397Z,17840
2022-10-09T13:05:12.398Z,17827
2022-10-09T13:06:12.388Z,17685
2022-10-09T13:07:12.387Z,17685
2022-10-09T13:08:12.403Z,17685
2022-10-09T13:09:12.413Z,17670
2022-10-09T13:10:12.618Z,17674
2022-10-09T13:11:12.396Z,17644
2022-10-09T13:12:12.392Z,17755
2022-10-09T13:13:12.400Z,17547
2022-10-09T13:14:12.397Z,17667
2022-10-09T13:15:14.932Z,17722
2022-10-09T13:16:12.442Z,17702
2022-10-09T13:17:12.394Z,17654
2022-10-09T13:18:12.407Z,17541
2022-10-09T13:19:12.399Z,17606
2022-10-09T13:20:12.412Z,17867
2022-10-09T13:21:12.399Z,17829
2022-10-09T13:22:12.393Z,17700
2022-10-09T13:23:12.447Z,17731
2022-10-09T13:24:12.398Z,17715
2022-10-09T13:25:12.383Z,17742
2022-10-09T13:26:12.402Z,17727
2022-10-09T13:27:12.386Z,17303
2022-10-09T13:28:12.499Z,17515
2022-10-09T13:29:12.478Z,17600
2022-10-09T13:30:12.393Z,17674
2022-10-09T13:31:12.422Z,17729
2022-10-09T13:32:12.389Z,17893
2022-10-09T13:33:12.398Z,18046
2022-10-09T13:34:12.383Z,17775
2022-10-09T13:35:12.387Z,17836
2022-10-09T13:36:12.385Z,16539
2022-10-09T13:37:12.383Z,19113
2022-10-09T13:38:12.398Z,17694
2022-10-09T13:39:12.410Z,17873